Time;durP1;ratioP1;P1;durP2;ratioP2;P2;SDS_P1;SDS_P2;PMS_P1;PMS_P2;Temp;Humidity;BMP_temperature;BMP_pressure;BME280_temperature;BME280_humidity;BME280_pressure;Samples;Min_cycle;Max_cycle;Signal;HPM_P1;HPM_P2
2020/12/11 00:00:17;;;;;;;29.50;17.55;;;1.60;99.90;;;;;;5094043;28;20093;-62
2020/12/11 00:02:43;;;;;;;30.55;17.67;;;1.70;99.90;;;;;;5094143;28;20051;-62
2020/12/11 00:05:10;;;;;;;30.40;18.55;;;1.80;99.90;;;;;;5094153;28;20480;-62
2020/12/11 00:07:38;;;;;;;26.88;16.33;;;1.80;99.90;;;;;;5092830;28;20105;-61
2020/12/11 00:10:05;;;;;;;27.00;17.90;;;1.80;99.90;;;;;;5093354;28;20052;-62
2020/12/11 00:12:34;;;;;;;27.63;18.17;;;1.60;99.90;;;;;;5093762;28;20125;-62
2020/12/11 00:15:03;;;;;;;29.15;17.17;;;1.70;99.90;;;;;;5093759;28;20485;-62
2020/12/11 00:17:30;;;;;;;28.05;17.10;;;1.60;99.90;;;;;;5093722;28;20044;-61
2020/12/11 00:19:59;;;;;;;26.60;17.10;;;1.60;99.90;;;;;;5093679;28;20044;-62
2020/12/11 00:22:26;;;;;;;25.90;15.73;;;1.70;99.90;;;;;;5092309;28;20059;-62
2020/12/11 00:24:53;;;;;;;26.88;16.25;;;1.80;99.90;;;;;;5073394;28;20048;-62
2020/12/11 00:27:19;;;;;;;28.25;17.48;;;1.60;99.90;;;;;;5073291;28;20467;-61
2020/12/11 00:29:46;;;;;;;28.35;16.75;;;1.70;99.90;;;;;;5072990;28;20090;-62
2020/12/11 00:32:14;;;;;;;27.92;16.83;;;1.80;99.90;;;;;;5073040;28;20135;-61
2020/12/11 00:34:40;;;;;;;27.70;17.52;;;1.90;99.90;;;;;;5072977;28;20099;-62
2020/12/11 00:37:07;;;;;;;28.48;17.77;;;2.00;99.90;;;;;;5073195;28;20084;-61
2020/12/11 00:39:34;;;;;;;28.10;17.25;;;2.00;99.90;;;;;;5073079;28;20070;-61
2020/12/11 00:42:01;;;;;;;26.25;15.88;;;2.10;99.90;;;;;;5072656;28;20151;-62
2020/12/11 00:44:28;;;;;;;26.08;16.30;;;2.20;99.90;;;;;;5073224;28;20117;-62
2020/12/11 00:46:55;;;;;;;28.17;17.52;;;2.20;99.90;;;;;;5072913;28;20048;-62
2020/12/11 00:49:23;;;;;;;29.23;17.88;;;2.20;99.90;;;;;;5072709;28;20118;-62
2020/12/11 00:51:54;;;;;;;31.02;17.38;;;2.30;99.90;;;;;;5072979;28;20118;-59
2020/12/11 00:54:23;;;;;;;26.95;17.33;;;2.30;99.90;;;;;;5072775;28;20048;-62
2020/12/11 00:56:49;;;;;;;23.10;14.63;;;2.20;99.90;;;;;;5072950;28;20161;-62
2020/12/11 00:59:16;;;;;;;22.10;14.18;;;2.20;99.90;;;;;;5073271;28;20538;-62
2020/12/11 01:01:43;;;;;;;25.45;15.23;;;2.30;99.90;;;;;;5072598;28;20539;-62
2020/12/11 01:04:09;;;;;;;23.25;14.68;;;2.30;99.90;;;;;;5072835;28;20440;-62
2020/12/11 01:06:38;;;;;;;23.58;15.23;;;1.90;99.90;;;;;;5071618;28;20053;-61
2020/12/11 01:09:05;;;;;;;24.48;14.70;;;1.90;99.90;;;;;;5072697;28;20053;-61
2020/12/11 01:11:32;;;;;;;24.88;14.90;;;2.00;99.90;;;;;;5072686;28;20102;-61
2020/12/11 01:14:01;;;;;;;21.75;13.32;;;2.20;99.90;;;;;;5073980;28;20087;-62
2020/12/11 01:16:27;;;;;;;21.80;14.05;;;1.80;99.90;;;;;;5074256;28;20045;-60
2020/12/11 01:18:54;;;;;;;26.00;15.55;;;1.90;99.90;;;;;;5072454;28;20076;-62
2020/12/11 01:21:21;;;;;;;25.88;15.88;;;2.00;99.90;;;;;;5072436;28;20060;-62
2020/12/11 01:23:48;;;;;;;22.65;14.93;;;2.10;99.90;;;;;;5072431;28;20048;-62
2020/12/11 01:26:15;;;;;;;23.83;13.32;;;2.20;99.90;;;;;;5072510;28;20497;-63
2020/12/11 01:28:41;;;;;;;24.80;15.20;;;2.10;99.90;;;;;;5072160;28;20462;-62
2020/12/11 01:31:08;;;;;;;23.60;14.65;;;2.10;99.90;;;;;;5072376;28;20076;-62
2020/12/11 01:33:35;;;;;;;23.75;15.73;;;2.10;99.90;;;;;;5072385;28;20048;-61
2020/12/11 01:36:01;;;;;;;22.10;13.98;;;2.10;99.90;;;;;;5072383;28;20414;-62
2020/12/11 01:38:28;;;;;;;23.42;14.85;;;2.20;99.90;;;;;;5072164;28;20079;-62
2020/12/11 01:40:55;;;;;;;26.92;15.32;;;2.30;99.90;;;;;;5072043;28;20124;-62
2020/12/11 01:43:22;;;;;;;24.23;16.08;;;2.30;99.90;;;;;;5071966;28;20080;-62
2020/12/11 01:45:48;;;;;;;27.75;16.08;;;2.20;99.90;;;;;;5072723;28;20056;-60
2020/12/11 01:48:16;;;;;;;27.23;16.55;;;2.30;99.90;;;;;;5072145;28;20076;-62
2020/12/11 01:50:43;;;;;;;27.23;15.90;;;2.40;99.90;;;;;;5072305;28;20090;-60
2020/12/11 01:53:10;;;;;;;26.95;17.17;;;2.50;99.90;;;;;;5072275;28;20503;-62
2020/12/11 01:55:39;;;;;;;26.02;15.75;;;2.30;99.90;;;;;;5071932;28;20052;-62
2020/12/11 01:58:13;;;;;;;24.50;14.88;;;2.40;99.90;;;;;;5074913;28;20151;-62
2020/12/11 02:00:42;;;;;;;27.48;16.65;;;2.40;99.90;;;;;;5076783;28;20080;-62
2020/12/11 02:03:11;;;;;;;25.30;15.75;;;2.40;99.90;;;;;;5076409;28;20092;-61
2020/12/11 02:05:38;;;;;;;26.92;16.85;;;2.50;99.90;;;;;;5075789;28;20102;-62
2020/12/11 02:08:05;;;;;;;27.25;15.98;;;2.60;99.90;;;;;;5075794;28;20127;-62
2020/12/11 02:10:32;;;;;;;25.10;14.95;;;2.80;99.90;;;;;;5075937;28;20070;-62
2020/12/11 02:13:05;;;;;;;22.88;14.73;;;2.50;99.90;;;;;;5075981;28;20485;-62
2020/12/11 02:15:33;;;;;;;23.35;14.07;;;2.50;99.90;;;;;;5076312;28;20053;-62
2020/12/11 02:17:59;;;;;;;25.52;15.35;;;2.20;99.90;;;;;;5075660;28;20136;-62
2020/12/11 02:20:26;;;;;;;23.17;13.93;;;2.10;99.90;;;;;;5075523;28;20083;-62
2020/12/11 02:22:53;;;;;;;25.42;15.80;;;2.20;99.90;;;;;;5075477;28;20173;-62
2020/12/11 02:25:20;;;;;;;25.50;16.05;;;2.40;99.90;;;;;;5075864;28;20360;-61
2020/12/11 02:27:47;;;;;;;22.02;13.27;;;2.50;99.90;;;;;;5075841;28;20147;-62
2020/12/11 02:30:15;;;;;;;23.65;15.30;;;2.30;99.90;;;;;;5077174;28;20044;-62
2020/12/11 02:32:42;;;;;;;23.65;14.98;;;2.30;99.90;;;;;;5075428;28;20102;-62
2020/12/11 02:35:08;;;;;;;21.88;13.55;;;2.40;99.90;;;;;;5075046;28;20221;-62
2020/12/11 02:37:36;;;;;;;25.63;15.23;;;2.50;99.90;;;;;;5075409;28;20045;-62
2020/12/11 02:40:05;;;;;;;21.40;13.95;;;2.50;99.90;;;;;;5075389;28;20056;-62
2020/12/11 02:42:32;;;;;;;21.90;14.13;;;2.60;99.90;;;;;;5074728;28;20084;-62
2020/12/11 02:44:58;;;;;;;22.02;14.65;;;2.40;99.90;;;;;;5075137;28;20088;-62
2020/12/11 02:47:32;;;;;;;21.38;13.85;;;2.50;99.90;;;;;;5075049;28;20139;-63
2020/12/11 02:49:59;;;;;;;23.85;15.00;;;2.60;99.90;;;;;;5074230;28;20045;-62
2020/12/11 02:52:26;;;;;;;20.63;13.35;;;2.60;99.90;;;;;;5075108;28;20135;-63
2020/12/11 02:54:52;;;;;;;21.00;13.50;;;2.60;99.90;;;;;;5075016;28;20063;-62
2020/12/11 02:57:20;;;;;;;22.27;13.32;;;2.60;99.90;;;;;;5075226;28;20048;-62
2020/12/11 02:59:47;;;;;;;21.27;13.65;;;2.60;99.90;;;;;;5075261;28;20076;-63
2020/12/11 03:02:13;;;;;;;23.35;14.93;;;2.70;99.90;;;;;;5075177;28;20091;-63
2020/12/11 03:04:40;;;;;;;21.02;14.82;;;2.50;99.90;;;;;;5074780;28;20132;-61
2020/12/11 03:07:07;;;;;;;24.08;15.57;;;2.50;99.90;;;;;;5074833;28;20060;-62
2020/12/11 03:09:33;;;;;;;23.67;15.20;;;2.70;99.90;;;;;;5073841;28;20052;-61
2020/12/11 03:12:00;;;;;;;22.85;15.23;;;2.90;99.90;;;;;;5075414;28;20389;-60
2020/12/11 03:14:27;;;;;;;22.38;14.55;;;3.00;99.90;;;;;;5074969;28;20048;-61
2020/12/11 03:16:54;;;;;;;21.33;13.57;;;3.10;99.90;;;;;;5074630;28;20123;-62
2020/12/11 03:19:23;;;;;;;18.85;12.20;;;3.00;99.90;;;;;;5074821;28;20052;-62
2020/12/11 03:21:49;;;;;;;19.45;12.07;;;2.90;99.90;;;;;;5074439;28;20052;-62
2020/12/11 03:24:18;;;;;;;23.20;15.25;;;2.70;99.90;;;;;;5074233;28;20044;-63
2020/12/11 03:26:45;;;;;;;22.42;14.63;;;2.70;99.90;;;;;;5074566;28;20051;-63
2020/12/11 03:29:11;;;;;;;21.20;13.13;;;2.60;99.90;;;;;;5074648;28;20055;-63
2020/12/11 03:31:39;;;;;;;19.92;12.85;;;2.40;99.90;;;;;;5074215;28;20435;-63
2020/12/11 03:34:05;;;;;;;19.05;11.95;;;2.40;99.90;;;;;;5074767;28;20052;-62
2020/12/11 03:36:31;;;;;;;20.83;13.65;;;2.20;99.90;;;;;;5074659;28;20136;-62
2020/12/11 03:38:58;;;;;;;20.35;13.27;;;2.40;99.90;;;;;;5074412;28;20094;-62
2020/12/11 03:41:24;;;;;;;21.42;13.55;;;2.40;99.90;;;;;;5073984;28;20084;-62
2020/12/11 03:43:53;;;;;;;21.05;13.43;;;2.20;99.90;;;;;;5074500;28;20189;-62
2020/12/11 03:46:20;;;;;;;19.77;13.40;;;2.40;99.90;;;;;;5073970;28;20481;-62
2020/12/11 03:48:50;;;;;;;17.80;12.07;;;2.30;99.90;;;;;;5074078;28;20071;-62
2020/12/11 03:51:17;;;;;;;21.27;14.53;;;2.20;99.90;;;;;;5074149;28;20547;-63
2020/12/11 03:53:44;;;;;;;18.65;11.85;;;2.30;99.90;;;;;;5073785;28;20521;-62
2020/12/11 03:56:13;;;;;;;19.10;12.45;;;2.30;99.90;;;;;;5075370;28;20053;-63
2020/12/11 03:58:39;;;;;;;19.23;12.65;;;2.40;99.90;;;;;;5073513;28;20087;-63
2020/12/11 04:01:11;;;;;;;22.27;15.55;;;2.30;99.90;;;;;;5073681;28;20078;-63
2020/12/11 04:03:38;;;;;;;20.48;12.75;;;2.30;99.90;;;;;;5073412;28;20497;-63
2020/12/11 04:06:09;;;;;;;20.98;13.77;;;2.20;99.90;;;;;;5087043;28;20044;-63
2020/12/11 04:08:37;;;;;;;22.95;15.00;;;2.30;99.90;;;;;;5093661;28;20047;-63
2020/12/11 04:11:05;;;;;;;23.13;14.50;;;2.40;99.90;;;;;;5093631;28;20081;-63
2020/12/11 04:13:32;;;;;;;20.88;13.55;;;2.40;99.90;;;;;;5093351;28;20477;-62
2020/12/11 04:15:59;;;;;;;25.05;15.00;;;2.30;99.90;;;;;;5093667;28;20048;-63
2020/12/11 04:18:28;;;;;;;22.23;14.57;;;2.20;99.90;;;;;;5093368;28;20070;-63
2020/12/11 04:20:55;;;;;;;23.08;15.18;;;2.40;99.90;;;;;;5078677;28;20051;-62
2020/12/11 04:23:22;;;;;;;19.40;12.85;;;2.40;99.90;;;;;;5073118;28;20056;-63
2020/12/11 04:25:49;;;;;;;20.60;14.52;;;2.20;99.90;;;;;;5073018;28;20086;-62
2020/12/11 04:28:16;;;;;;;24.10;15.27;;;2.20;99.90;;;;;;5073127;28;20106;-62
2020/12/11 04:30:43;;;;;;;19.70;13.65;;;2.20;99.90;;;;;;5073913;28;20053;-62
2020/12/11 04:33:12;;;;;;;16.40;11.85;;;2.10;99.90;;;;;;5073228;28;20130;-63
2020/12/11 04:35:39;;;;;;;19.13;12.10;;;2.30;99.90;;;;;;5073119;28;20056;-63
2020/12/11 04:38:06;;;;;;;21.58;14.55;;;2.20;99.90;;;;;;5073226;28;20423;-63
2020/12/11 04:40:36;;;;;;;19.33;12.95;;;2.10;99.90;;;;;;5073223;28;20099;-63
2020/12/11 04:43:05;;;;;;;18.77;12.57;;;2.10;99.90;;;;;;5072618;28;20056;-63
2020/12/11 04:45:32;;;;;;;17.52;11.75;;;2.10;99.90;;;;;;5073289;28;20052;-63
2020/12/11 04:47:58;;;;;;;19.70;13.38;;;2.10;99.90;;;;;;5073844;28;20477;-61
2020/12/11 04:50:27;;;;;;;19.13;11.98;;;2.00;99.90;;;;;;5072586;28;20093;-63
2020/12/11 04:52:56;;;;;;;16.90;11.95;;;2.10;99.90;;;;;;5072793;28;20128;-63
2020/12/11 04:55:23;;;;;;;17.98;11.02;;;2.10;99.90;;;;;;5073189;28;20050;-63
2020/12/11 04:57:52;;;;;;;18.02;12.32;;;2.20;99.90;;;;;;5072849;28;20057;-62
2020/12/11 05:00:22;;;;;;;17.13;11.85;;;2.20;99.90;;;;;;5072795;28;20084;-62
2020/12/11 05:02:49;;;;;;;18.85;12.75;;;2.30;99.90;;;;;;5072878;28;20097;-63
2020/12/11 05:05:18;;;;;;;17.90;11.57;;;2.30;99.90;;;;;;5072916;28;20389;-62
2020/12/11 05:07:45;;;;;;;16.60;12.23;;;2.20;99.90;;;;;;5072710;28;20076;-62
2020/12/11 05:10:12;;;;;;;16.63;11.75;;;2.30;99.90;;;;;;5073074;28;20060;-62
2020/12/11 05:12:39;;;;;;;19.30;12.55;;;2.30;99.90;;;;;;5072847;28;20492;-63
2020/12/11 05:15:08;;;;;;;17.30;11.70;;;2.40;99.90;;;;;;5072883;28;20052;-63
2020/12/11 05:17:37;;;;;;;19.00;12.85;;;2.50;99.90;;;;;;5072604;28;20049;-63
2020/12/11 05:20:04;;;;;;;19.90;13.40;;;2.50;99.90;;;;;;5072699;28;20461;-62
2020/12/11 05:22:33;;;;;;;18.85;12.07;;;2.60;99.90;;;;;;5072811;28;20056;-63
2020/12/11 05:25:00;;;;;;;18.27;11.80;;;2.60;99.90;;;;;;5072831;28;20098;-62
2020/12/11 05:27:35;;;;;;;17.17;12.07;;;2.50;99.90;;;;;;5072611;28;20113;-63
2020/12/11 05:30:21;;;;;;;17.65;12.98;;;2.50;99.90;;;;;;5072343;28;20048;-61
2020/12/11 05:32:49;;;;;;;16.77;11.93;;;2.60;99.90;;;;;;5075441;28;20102;-63
2020/12/11 05:35:30;;;;;;;17.35;12.43;;;2.50;99.90;;;;;;5076648;28;20175;-63
2020/12/11 05:38:02;;;;;;;15.10;11.35;;;2.70;99.90;;;;;;5076729;28;20437;-62
2020/12/11 05:40:32;;;;;;;16.80;12.40;;;2.80;99.90;;;;;;5076467;28;20135;-62
2020/12/11 05:43:11;;;;;;;19.02;12.75;;;2.80;99.90;;;;;;5076067;28;20516;-63
2020/12/11 05:45:39;;;;;;;16.67;11.95;;;2.80;99.90;;;;;;5076661;28;20143;-63
2020/12/11 05:48:07;;;;;;;19.55;13.30;;;2.80;99.90;;;;;;5076877;28;20079;-63
2020/12/11 05:50:34;;;;;;;19.00;13.25;;;2.70;99.90;;;;;;5076257;28;20056;-63
2020/12/11 05:53:01;;;;;;;17.52;12.75;;;2.60;99.90;;;;;;5076757;28;20488;-63
2020/12/11 05:55:28;;;;;;;17.33;12.30;;;2.70;99.90;;;;;;5075728;28;20048;-63
2020/12/11 05:57:57;;;;;;;17.25;11.82;;;2.80;99.90;;;;;;5076033;28;20053;-63
2020/12/11 06:00:24;;;;;;;17.73;12.27;;;2.80;99.90;;;;;;5076392;28;20481;-62
2020/12/11 06:02:53;;;;;;;18.95;13.27;;;2.70;99.90;;;;;;5075698;28;20048;-62
2020/12/11 06:05:23;;;;;;;18.35;12.77;;;2.80;99.90;;;;;;5075864;28;20467;-63
2020/12/11 06:07:51;;;;;;;19.25;12.70;;;2.70;99.90;;;;;;5075929;28;20060;-63
2020/12/11 06:10:20;;;;;;;18.38;11.88;;;2.60;99.90;;;;;;5076123;28;20040;-63
2020/12/11 06:12:47;;;;;;;17.70;12.82;;;2.70;99.90;;;;;;5076370;28;20052;-63
2020/12/11 06:15:28;;;;;;;17.55;12.63;;;2.60;99.90;;;;;;5075883;28;20051;-63
2020/12/11 06:18:03;;;;;;;18.75;13.23;;;2.60;99.90;;;;;;5075723;28;20051;-63
2020/12/11 06:20:30;;;;;;;17.15;12.25;;;2.60;99.90;;;;;;5075414;28;20455;-63
2020/12/11 06:23:21;;;;;;;17.35;12.88;;;2.50;99.90;;;;;;5079476;28;20044;-63
2020/12/11 06:25:52;;;;;;;16.42;11.40;;;2.50;99.90;;;;;;5077199;28;20105;-63
2020/12/11 06:28:38;;;;;;;17.05;12.05;;;2.40;99.90;;;;;;5079048;28;20117;-63
2020/12/11 06:31:06;;;;;;;17.60;12.27;;;2.40;99.90;;;;;;5088456;28;20087;-63
2020/12/11 06:33:35;;;;;;;18.02;12.80;;;2.40;99.90;;;;;;5079160;28;20474;-63
2020/12/11 06:36:03;;;;;;;16.40;12.25;;;2.30;99.90;;;;;;5079326;28;20052;-63
2020/12/11 06:38:39;;;;;;;17.42;11.93;;;2.30;99.90;;;;;;5075307;28;20061;-61
2020/12/11 06:41:06;;;;;;;17.08;12.25;;;2.30;99.90;;;;;;5083307;28;20147;-62
2020/12/11 06:43:43;;;;;;;15.20;11.30;;;2.40;99.90;;;;;;5086435;28;20504;-63
2020/12/11 06:46:28;;;;;;;14.10;10.00;;;2.30;99.90;;;;;;5095696;28;20079;-62
2020/12/11 06:49:12;;;;;;;16.10;11.63;;;2.30;99.90;;;;;;5089150;28;20097;-62
2020/12/11 06:52:10;;;;;;;15.10;10.68;;;2.30;99.90;;;;;;5091170;28;20052;-62
2020/12/11 06:54:53;;;;;;;14.93;11.38;;;2.40;99.90;;;;;;5094589;28;20089;-63
2020/12/11 06:57:46;;;;;;;17.20;12.00;;;2.60;99.90;;;;;;5086879;28;20101;-63
2020/12/11 07:00:50;;;;;;;15.95;10.52;;;2.70;99.90;;;;;;5091331;28;20482;-62
2020/12/11 07:03:18;;;;;;;13.23;9.45;;;2.50;99.90;;;;;;5077031;28;20076;-61
2020/12/11 07:05:55;;;;;;;14.02;9.98;;;2.60;99.90;;;;;;5073963;28;20523;-63
2020/12/11 07:08:21;;;;;;;15.77;10.98;;;2.50;99.90;;;;;;5075412;28;20551;-62
2020/12/11 07:10:48;;;;;;;15.43;10.82;;;2.50;99.90;;;;;;5074591;28;20044;-63
2020/12/11 07:13:14;;;;;;;15.43;11.15;;;2.50;99.90;;;;;;5074696;28;20048;-63
2020/12/11 07:15:41;;;;;;;14.73;10.57;;;2.60;99.90;;;;;;5074496;28;20044;-63
2020/12/11 07:18:14;;;;;;;15.52;11.55;;;2.50;99.90;;;;;;5074462;28;20052;-63
2020/12/11 07:20:49;;;;;;;15.70;11.35;;;2.50;99.90;;;;;;5054622;28;20485;-62
2020/12/11 07:23:17;;;;;;;15.15;10.80;;;2.50;99.90;;;;;;5063895;28;20102;-63
2020/12/11 07:25:45;;;;;;;13.15;9.60;;;2.50;99.90;;;;;;5094655;28;20052;-63
2020/12/11 07:28:12;;;;;;;15.38;10.10;;;2.50;99.90;;;;;;5094956;28;20090;-63
2020/12/11 07:30:38;;;;;;;13.82;9.60;;;2.50;99.90;;;;;;5092537;28;20501;-63
2020/12/11 07:33:09;;;;;;;12.98;9.70;;;2.50;99.90;;;;;;5094579;28;20098;-63
2020/12/11 07:35:36;;;;;;;14.35;9.43;;;2.60;99.90;;;;;;5078425;28;20127;-63
2020/12/11 07:38:04;;;;;;;13.45;9.63;;;2.60;99.90;;;;;;5074351;28;20052;-63
2020/12/11 07:40:30;;;;;;;14.02;9.50;;;2.60;99.90;;;;;;5074273;28;20079;-63
2020/12/11 07:42:58;;;;;;;14.80;9.70;;;2.60;99.90;;;;;;5073613;28;20128;-63
2020/12/11 07:45:26;;;;;;;13.60;10.60;;;2.70;99.90;;;;;;5073481;28;20052;-63
2020/12/11 07:47:54;;;;;;;13.70;8.77;;;2.70;99.90;;;;;;5073741;28;20049;-63
2020/12/11 07:50:25;;;;;;;14.38;10.32;;;2.70;99.90;;;;;;5093631;28;20483;-63
2020/12/11 07:52:53;;;;;;;15.07;11.30;;;2.70;99.90;;;;;;5076589;28;20551;-62
2020/12/11 07:55:22;;;;;;;15.15;9.90;;;2.80;99.90;;;;;;5078470;28;20087;-63
2020/12/11 07:57:53;;;;;;;13.05;9.43;;;2.80;99.90;;;;;;5082411;28;20442;-63
2020/12/11 08:00:20;;;;;;;14.45;10.07;;;2.80;99.90;;;;;;5078459;28;20163;-63
2020/12/11 08:03:05;;;;;;;13.48;10.05;;;3.00;99.90;;;;;;5083592;28;20099;-63
2020/12/11 08:05:32;;;;;;;14.18;10.32;;;2.90;99.90;;;;;;5078492;28;20139;-63
2020/12/11 08:07:59;;;;;;;12.35;9.05;;;3.10;99.90;;;;;;5087595;28;20079;-63
2020/12/11 08:10:44;;;;;;;12.90;9.95;;;3.00;99.90;;;;;;5081772;28;20048;-66
2020/12/11 08:13:18;;;;;;;12.60;9.63;;;3.20;99.90;;;;;;5077239;28;20139;-65
2020/12/11 08:15:46;;;;;;;11.07;8.70;;;3.40;99.90;;;;;;5085397;28;20135;-65
2020/12/11 08:18:21;;;;;;;14.70;8.55;;;3.50;99.90;;;;;;5074896;28;20044;-65
2020/12/11 08:20:55;;;;;;;12.75;8.70;;;3.60;99.90;;;;;;5071716;28;20424;-65
2020/12/11 08:23:40;;;;;;;9.60;7.05;;;4.70;99.90;;;;;;5069675;28;20071;-65
2020/12/11 08:26:10;;;;;;;10.45;7.40;;;5.60;99.90;;;;;;5072556;28;20579;-65
2020/12/11 08:28:38;;;;;;;8.00;6.50;;;6.30;99.90;;;;;;5083937;28;20040;-65
2020/12/11 08:31:15;;;;;;;9.52;7.85;;;6.60;99.90;;;;;;5070700;28;20098;-65
2020/12/11 08:33:42;;;;;;;10.35;7.72;;;7.20;99.90;;;;;;5083236;28;20084;-65
2020/12/11 08:36:18;;;;;;;9.90;7.90;;;7.10;99.90;;;;;;5071097;28;20059;-65
2020/12/11 08:39:13;;;;;;;10.65;8.57;;;8.10;99.90;;;;;;5071910;28;20167;-65
2020/12/11 08:41:46;;;;;;;8.90;7.40;;;8.60;99.90;;;;;;5073077;28;20060;-65
2020/12/11 08:44:23;;;;;;;10.05;8.10;;;8.50;99.90;;;;;;5074207;28;20538;-65
2020/12/11 08:49:46;;;;;;;8.38;6.43;;;8.00;99.90;;;;;;5070048;28;20055;-65
2020/12/11 08:52:13;;;;;;;8.23;6.75;;;8.40;99.90;;;;;;5070297;28;20088;-65
2020/12/11 08:54:40;;;;;;;8.18;6.60;;;8.40;99.90;;;;;;5071293;28;20088;-65
2020/12/11 08:57:08;;;;;;;9.45;7.22;;;6.80;99.90;;;;;;5074499;28;20079;-65
2020/12/11 08:59:34;;;;;;;9.43;7.57;;;5.80;99.90;;;;;;5074107;28;20051;-65
2020/12/11 09:02:02;;;;;;;9.60;7.80;;;5.60;99.90;;;;;;5074248;28;20052;-65
2020/12/11 09:04:31;;;;;;;9.23;7.88;;;5.80;99.90;;;;;;5070038;28;20044;-65
2020/12/11 09:06:58;;;;;;;9.18;6.80;;;6.50;99.90;;;;;;5071112;28;20404;-65
2020/12/11 09:09:24;;;;;;;8.88;7.10;;;7.30;99.90;;;;;;5070357;28;20075;-65
2020/12/11 09:11:51;;;;;;;8.85;6.80;;;7.40;99.90;;;;;;5071561;28;20134;-65
2020/12/11 09:14:21;;;;;;;7.97;6.78;;;7.50;99.90;;;;;;5070512;28;20048;-65
2020/12/11 09:16:47;;;;;;;8.88;7.00;;;7.50;99.90;;;;;;5068216;28;20551;-65
2020/12/11 09:19:14;;;;;;;8.57;7.22;;;7.10;99.90;;;;;;5069581;28;20060;-65
2020/12/11 09:21:41;;;;;;;8.73;7.18;;;6.70;99.90;;;;;;5069927;28;20048;-65
2020/12/11 09:24:10;;;;;;;7.75;6.57;;;6.70;99.90;;;;;;5075149;28;20413;-65
2020/12/11 09:26:37;;;;;;;8.67;7.37;;;6.60;99.90;;;;;;5073958;28;20127;-65
2020/12/11 09:29:10;;;;;;;9.15;7.00;;;7.40;99.90;;;;;;5073093;28;20102;-65
2020/12/11 09:31:39;;;;;;;7.13;5.90;;;7.50;99.90;;;;;;5071461;28;20139;-65
2020/12/11 09:34:05;;;;;;;8.30;6.43;;;7.20;99.90;;;;;;5068692;28;20498;-65
2020/12/11 09:36:32;;;;;;;9.40;7.07;;;7.20;99.90;;;;;;5072154;28;20052;-65
2020/12/11 09:38:58;;;;;;;9.02;7.32;;;6.70;99.90;;;;;;5071773;28;20149;-64
2020/12/11 09:41:28;;;;;;;9.02;7.50;;;6.50;99.90;;;;;;5070250;28;20055;-65
2020/12/11 09:46:45;;;;;;;7.70;5.90;;;5.90;99.90;;;;;;5069983;28;20488;-65
2020/12/11 09:49:13;;;;;;;8.23;6.47;;;5.60;99.90;;;;;;5076300;28;20481;-65
2020/12/11 09:54:24;;;;;;;8.88;6.85;;;5.60;99.90;;;;;;5074641;28;20052;-65
2020/12/11 09:56:51;;;;;;;9.23;6.57;;;5.70;99.90;;;;;;5070830;28;20048;-65
2020/12/11 09:59:19;;;;;;;8.35;6.30;;;5.60;99.90;;;;;;5078949;28;20455;-65
2020/12/11 10:01:58;;;;;;;9.70;6.60;;;5.60;99.90;;;;;;5070181;28;20060;-65
2020/12/11 10:04:24;;;;;;;8.32;6.28;;;5.50;99.90;;;;;;5075565;28;20131;-65
2020/12/11 10:06:51;;;;;;;8.45;6.20;;;5.40;99.90;;;;;;5073534;28;20082;-65
2020/12/11 10:09:18;;;;;;;9.60;6.93;;;5.50;99.90;;;;;;5072309;28;20056;-65
2020/12/11 10:11:44;;;;;;;9.40;6.60;;;5.30;99.90;;;;;;5072723;28;20052;-65
2020/12/11 10:14:17;;;;;;;8.82;6.75;;;5.20;99.90;;;;;;5070545;28;20048;-64
2020/12/11 10:16:43;;;;;;;9.45;6.50;;;5.30;99.90;;;;;;5075244;28;20083;-65
2020/12/11 10:19:11;;;;;;;8.75;6.43;;;5.30;99.90;;;;;;5078674;28;20087;-65
2020/12/11 10:21:40;;;;;;;10.60;7.50;;;5.40;99.90;;;;;;5073342;28;20052;-65
2020/12/11 10:24:07;;;;;;;10.75;6.22;;;5.50;99.90;;;;;;5074386;28;20067;-65
2020/12/11 10:26:33;;;;;;;9.48;7.75;;;5.70;99.90;;;;;;5078448;28;20052;-64
2020/12/11 10:29:00;;;;;;;8.20;6.68;;;6.50;99.90;;;;;;5073072;28;20137;-65
2020/12/11 10:31:30;;;;;;;8.10;6.78;;;6.70;99.90;;;;;;5073337;28;20084;-65
2020/12/11 10:33:57;;;;;;;8.25;6.40;;;6.70;99.90;;;;;;5073747;28;20158;-65
2020/12/11 10:36:29;;;;;;;8.55;6.28;;;6.80;99.90;;;;;;5075539;28;20056;-65
2020/12/11 10:38:56;;;;;;;8.25;6.07;;;6.70;99.90;;;;;;5072314;28;20469;-65
2020/12/11 10:41:23;;;;;;;7.80;6.25;;;7.20;99.90;;;;;;5079612;28;20522;-65
2020/12/11 10:43:51;;;;;;;8.30;6.78;;;6.70;99.90;;;;;;5072283;28;20090;-65
2020/12/11 10:46:18;;;;;;;8.48;6.30;;;6.60;99.90;;;;;;5074439;28;20084;-64
2020/12/11 10:48:44;;;;;;;7.95;6.18;;;6.60;99.90;;;;;;5080290;28;20053;-65
2020/12/11 10:51:12;;;;;;;8.18;6.90;;;6.50;99.90;;;;;;5072458;28;20048;-65
2020/12/11 10:53:42;;;;;;;7.55;6.05;;;6.90;99.90;;;;;;5073264;28;20127;-65
2020/12/11 10:56:10;;;;;;;8.18;6.07;;;6.60;99.90;;;;;;5082816;28;20477;-65
2020/12/11 10:58:37;;;;;;;9.02;6.35;;;6.50;99.90;;;;;;5069993;28;20135;-64
2020/12/11 11:01:05;;;;;;;8.82;7.60;;;6.50;99.90;;;;;;5072566;28;20425;-65
2020/12/11 11:03:32;;;;;;;8.65;6.85;;;7.10;99.90;;;;;;5072928;28;20052;-65
2020/12/11 11:06:02;;;;;;;9.23;6.80;;;7.20;99.90;;;;;;5072459;28;20134;-65
2020/12/11 11:08:37;;;;;;;8.35;7.03;;;7.50;99.90;;;;;;5076771;28;20066;-65
2020/12/11 11:11:05;;;;;;;7.97;6.78;;;7.50;99.90;;;;;;5073551;28;20127;-65
2020/12/11 11:13:39;;;;;;;7.55;6.00;;;7.60;99.90;;;;;;5072911;28;20052;-65
2020/12/11 11:16:05;;;;;;;8.40;6.60;;;7.40;99.90;;;;;;5072310;28;20489;-65
2020/12/11 11:18:40;;;;;;;8.13;6.43;;;7.20;99.90;;;;;;5072043;28;20493;-65
2020/12/11 11:21:27;;;;;;;8.18;6.03;;;7.20;99.90;;;;;;5073161;28;20048;-65
2020/12/11 11:26:44;;;;;;;8.65;6.53;;;7.40;99.90;;;;;;5074124;28;20481;-64
2020/12/11 11:29:11;;;;;;;10.13;6.85;;;6.90;99.90;;;;;;5071815;28;20358;-65
2020/12/11 11:31:37;;;;;;;8.32;6.40;;;6.70;99.90;;;;;;5072477;28;20107;-65
2020/12/11 11:34:05;;;;;;;9.38;7.50;;;6.40;99.90;;;;;;5071665;28;20115;-65
2020/12/11 11:36:33;;;;;;;9.55;8.65;;;6.70;99.90;;;;;;5072807;28;20095;-65
2020/12/11 11:38:59;;;;;;;10.85;9.85;;;6.70;99.90;;;;;;5071648;28;20540;-65
2020/12/11 11:47:07;;;;;;;8.88;8.07;;;7.70;99.90;;;;;;5046503;28;20128;-65
2020/12/11 11:49:37;;;;;;;9.30;8.30;;;7.70;99.90;;;;;;5071066;28;20173;-65
2020/12/11 11:52:16;;;;;;;9.32;8.23;;;8.30;99.90;;;;;;5071907;28;20063;-65
2020/12/11 11:54:42;;;;;;;9.88;8.43;;;8.50;99.90;;;;;;5071947;28;20143;-65
2020/12/11 11:57:09;;;;;;;7.80;5.10;;;8.20;99.90;;;;;;5071555;28;20070;-65
2020/12/11 11:59:36;;;;;;;8.63;6.78;;;7.30;99.90;;;;;;5071716;28;20076;-65
2020/12/11 12:02:03;;;;;;;7.88;6.72;;;7.10;99.90;;;;;;5071392;28;20048;-65
2020/12/11 12:04:29;;;;;;;7.72;5.53;;;7.20;99.90;;;;;;5071236;28;20048;-65
2020/12/11 12:06:57;;;;;;;7.70;6.90;;;6.90;99.90;;;;;;5079513;28;20485;-65
2020/12/11 12:09:24;;;;;;;9.48;6.85;;;6.80;99.90;;;;;;5071215;28;20049;-65
2020/12/11 12:11:53;;;;;;;9.05;6.55;;;6.90;99.90;;;;;;5071087;28;20374;-65
2020/12/11 12:14:20;;;;;;;9.10;6.75;;;7.20;99.90;;;;;;5076718;28;20045;-65
2020/12/11 12:16:51;;;;;;;8.70;5.47;;;7.00;99.90;;;;;;5073689;28;20488;-65
2020/12/11 12:19:24;;;;;;;8.90;6.88;;;7.10;99.90;;;;;;5071286;28;20066;-65
2020/12/11 12:30:07;;;;;;;9.30;6.28;;;7.20;99.90;;;;;;5046581;28;20516;-65
2020/12/11 12:32:42;;;;;;;7.72;5.78;;;7.20;99.90;;;;;;5071077;28;20056;-65
2020/12/11 12:35:21;;;;;;;6.43;4.82;;;7.20;99.90;;;;;;5070344;28;20428;-65
2020/12/11 12:37:49;;;;;;;7.20;5.95;;;7.10;99.90;;;;;;5070420;28;20481;-65
2020/12/11 12:40:35;;;;;;;7.30;5.28;;;7.00;99.90;;;;;;5072322;28;20041;-65
2020/12/11 12:43:15;;;;;;;9.02;5.85;;;6.90;99.90;;;;;;5069315;28;20501;-65
2020/12/11 12:45:41;;;;;;;7.68;5.20;;;6.70;99.90;;;;;;5084664;28;20458;-65
2020/12/11 12:48:11;;;;;;;8.35;6.00;;;6.90;99.90;;;;;;5070788;28;20477;-65
2020/12/11 12:50:37;;;;;;;;;;;6.90;99.90;;;;;;5070817;28;20076;-65
2020/12/11 12:53:04;;;;;;;8.10;5.53;;;6.80;99.90;;;;;;5081441;28;19947;-65
2020/12/11 12:58:16;;;;;;;7.78;5.90;;;6.50;99.90;;;;;;5072338;28;20080;-65
2020/12/11 13:00:53;;;;;;;8.75;5.72;;;6.60;99.90;;;;;;5078683;28;20455;-65
2020/12/11 13:06:02;;;;;;;8.10;6.03;;;6.40;99.90;;;;;;5061386;28;20140;-65
2020/12/11 13:08:28;;;;;;;7.05;5.43;;;6.50;99.90;;;;;;5077973;28;20114;-65
2020/12/11 13:10:57;;;;;;;8.27;6.22;;;6.40;99.90;;;;;;5069541;28;20094;-65
2020/12/11 13:13:23;;;;;;;8.27;5.97;;;6.40;99.90;;;;;;5073777;28;20041;-65
2020/12/11 13:15:50;;;;;;;8.95;6.63;;;6.40;99.90;;;;;;5070295;28;20509;-65
2020/12/11 13:18:19;;;;;;;7.22;5.32;;;6.40;99.90;;;;;;5073926;28;20044;-65
2020/12/11 13:20:47;;;;;;;8.43;5.93;;;6.40;99.90;;;;;;5071528;28;20045;-65
2020/12/11 13:28:39;;;;;;;8.23;5.82;;;6.10;99.90;;;;;;5075530;28;20094;-65
2020/12/11 13:31:06;;;;;;;8.35;6.25;;;6.30;99.90;;;;;;5069592;28;20085;-65